createdAt,value
2023-03-22T00:01:46.492Z,5.87
2023-03-22T00:04:13.078Z,5.53
2023-03-22T00:06:39.536Z,5.80
2023-03-22T00:09:06.293Z,6.13
2023-03-22T00:11:32.678Z,5.87
2023-03-22T00:13:59.941Z,5.53
2023-03-22T00:16:26.764Z,5.70
2023-03-22T00:18:53.245Z,5.43
2023-03-22T00:21:19.752Z,5.23
2023-03-22T00:23:46.589Z,5.70
2023-03-22T00:26:14.830Z,6.00
2023-03-22T00:28:42.284Z,5.57
2023-03-22T00:31:09.277Z,5.77
2023-03-22T00:33:36.609Z,5.60
2023-03-22T00:36:08.686Z,6.07
2023-03-22T00:38:42.950Z,5.77
2023-03-22T00:41:11.417Z,6.50
2023-03-22T00:43:38.486Z,6.10
2023-03-22T00:46:05.827Z,5.90
2023-03-22T00:48:32.415Z,6.07
2023-03-22T00:50:58.904Z,6.47
2023-03-22T00:53:26.400Z,6.33
2023-03-22T00:55:52.821Z,7.23
2023-03-22T00:58:19.226Z,6.40
2023-03-22T01:00:46.069Z,6.30
2023-03-22T01:03:14.178Z,6.63
2023-03-22T01:05:40.589Z,6.13
2023-03-22T01:08:08.684Z,7.13
2023-03-22T01:10:36.747Z,6.23
2023-03-22T01:13:04.008Z,5.70
2023-03-22T01:15:30.623Z,5.70
2023-03-22T01:17:57.407Z,5.93
2023-03-22T01:20:24.189Z,5.47
2023-03-22T01:22:51.322Z,5.50
2023-03-22T01:25:18.373Z,5.97
2023-03-22T01:27:45.226Z,5.80
2023-03-22T01:30:12.640Z,5.20
2023-03-22T01:32:39.473Z,5.53
2023-03-22T01:35:07.179Z,5.60
2023-03-22T01:37:33.718Z,5.30
2023-03-22T01:40:00.505Z,6.27
2023-03-22T01:42:27.844Z,5.50
2023-03-22T01:45:13.032Z,5.20
2023-03-22T01:47:47.973Z,5.70
2023-03-22T01:50:15.222Z,6.13
2023-03-22T01:52:41.677Z,6.07
2023-03-22T01:55:09.434Z,5.70
2023-03-22T01:57:39.250Z,5.87
2023-03-22T02:00:10.802Z,5.93
2023-03-22T02:02:37.357Z,6.27
2023-03-22T02:05:04.474Z,6.40
2023-03-22T02:07:31.736Z,6.27
2023-03-22T02:09:59.526Z,5.70
2023-03-22T02:13:02.003Z,6.23
2023-03-22T02:15:52.054Z,6.10
2023-03-22T02:18:35.616Z,6.60
2023-03-22T02:21:04.965Z,5.97
2023-03-22T02:23:57.341Z,6.27
2023-03-22T02:26:41.728Z,6.87
2023-03-22T02:29:26.266Z,6.53
2023-03-22T02:32:12.201Z,7.00
2023-03-22T02:34:55.379Z,7.03
2023-03-22T02:37:38.886Z,6.80
2023-03-22T02:40:26.308Z,6.50
2023-03-22T02:43:16.955Z,6.60
2023-03-22T02:46:07.746Z,6.70
2023-03-22T02:48:50.640Z,6.63
2023-03-22T02:51:29.863Z,6.50
2023-03-22T02:54:06.523Z,6.93
2023-03-22T02:57:16.698Z,7.30
2023-03-22T02:59:44.184Z,6.50
2023-03-22T03:02:17.263Z,7.03
2023-03-22T03:04:47.898Z,7.00
2023-03-22T03:07:19.257Z,6.90
2023-03-22T03:09:45.997Z,6.50
2023-03-22T03:12:20.102Z,6.27
2023-03-22T03:14:46.527Z,6.67
2023-03-22T03:17:37.920Z,6.27
2023-03-22T03:20:30.401Z,6.60
2023-03-22T03:23:04.687Z,6.47
2023-03-22T03:25:43.599Z,6.30
2023-03-22T03:28:30.182Z,6.50
2023-03-22T03:31:06.430Z,5.53
2023-03-22T03:33:36.338Z,6.67
2023-03-22T03:36:08.287Z,7.17
2023-03-22T03:38:38.311Z,6.80
2023-03-22T03:41:09.192Z,6.77
2023-03-22T03:43:37.119Z,6.53
2023-03-22T03:46:03.674Z,6.80
2023-03-22T03:48:33.195Z,6.50
2023-03-22T03:51:01.753Z,7.17
2023-03-22T03:53:28.777Z,7.00
2023-03-22T03:55:55.205Z,7.17
2023-03-22T03:58:21.634Z,6.70
2023-03-22T04:00:48.851Z,7.00
2023-03-22T04:03:15.663Z,7.97
2023-03-22T04:05:42.852Z,7.83
2023-03-22T04:08:09.293Z,7.17
2023-03-22T04:10:36.076Z,7.57
2023-03-22T04:13:02.495Z,7.23
2023-03-22T04:15:29.058Z,6.93
2023-03-22T04:17:55.532Z,7.50
2023-03-22T04:20:22.506Z,7.27
2023-03-22T04:22:49.090Z,7.10
2023-03-22T04:25:18.039Z,6.87
2023-03-22T04:27:47.121Z,6.60
2023-03-22T04:30:22.171Z,7.03
2023-03-22T04:32:49.685Z,6.53
2023-03-22T04:35:16.553Z,6.80
2023-03-22T04:37:43.675Z,7.30
2023-03-22T04:40:16.518Z,7.10
2023-03-22T04:42:44.696Z,6.70
2023-03-22T04:45:12.396Z,6.80
2023-03-22T04:47:39.200Z,7.23
2023-03-22T04:50:07.590Z,7.23
2023-03-22T04:52:33.984Z,7.17
2023-03-22T04:55:00.468Z,7.07
2023-03-22T04:57:26.985Z,7.80
2023-03-22T04:59:53.362Z,7.60
2023-03-22T05:02:19.825Z,7.83
2023-03-22T05:04:46.286Z,7.30
2023-03-22T05:07:12.863Z,7.03
2023-03-22T05:09:39.380Z,7.63
2023-03-22T05:12:06.026Z,7.37
2023-03-22T05:14:32.620Z,7.33
2023-03-22T05:16:59.147Z,7.13
2023-03-22T05:19:25.609Z,7.33
2023-03-22T05:21:58.493Z,6.70
2023-03-22T05:24:25.271Z,6.73
2023-03-22T05:26:53.866Z,7.40
2023-03-22T05:29:21.340Z,7.57
2023-03-22T05:31:47.898Z,7.40
2023-03-22T05:34:14.719Z,7.07
2023-03-22T05:36:41.503Z,7.80
2023-03-22T05:39:08.080Z,7.10
2023-03-22T05:41:36.667Z,7.00
2023-03-22T05:44:04.355Z,7.73
2023-03-22T05:46:30.894Z,8.97
2023-03-22T05:48:57.390Z,8.60
2023-03-22T05:51:26.277Z,9.67
2023-03-22T05:53:53.533Z,9.10
2023-03-22T05:56:24.908Z,9.90
2023-03-22T05:58:52.069Z,9.07
2023-03-22T06:01:20.404Z,9.30
2023-03-22T06:03:48.646Z,10.30
2023-03-22T06:06:15.726Z,9.93
2023-03-22T06:08:42.870Z,10.77
2023-03-22T06:11:09.852Z,10.50
2023-03-22T06:13:37.443Z,10.90
2023-03-22T06:16:05.341Z,10.00
2023-03-22T06:18:32.999Z,10.40
2023-03-22T06:20:59.492Z,9.30
2023-03-22T06:23:26.301Z,10.70
2023-03-22T06:25:52.813Z,10.13
2023-03-22T06:28:19.231Z,10.67
2023-03-22T06:30:45.751Z,10.47
2023-03-22T06:33:12.218Z,11.30
2023-03-22T06:35:38.716Z,11.57
2023-03-22T06:38:05.460Z,12.00
2023-03-22T06:40:31.926Z,11.83
2023-03-22T06:42:59.838Z,12.13
2023-03-22T06:45:33.136Z,11.63
2023-03-22T06:48:00.835Z,11.90
2023-03-22T06:50:28.568Z,12.03
2023-03-22T06:52:55.338Z,12.77
2023-03-22T06:55:22.206Z,12.63
2023-03-22T06:57:48.604Z,11.93
2023-03-22T07:00:15.927Z,11.60
2023-03-22T07:02:42.307Z,12.47
2023-03-22T07:05:09.266Z,11.80
2023-03-22T07:07:35.810Z,12.17
2023-03-22T07:10:02.201Z,12.10
2023-03-22T07:12:28.773Z,12.57
2023-03-22T07:14:55.349Z,12.47
2023-03-22T07:17:21.861Z,12.60
2023-03-22T07:19:48.835Z,12.43
2023-03-22T07:22:15.450Z,12.23
2023-03-22T07:24:55.742Z,12.73
2023-03-22T07:27:23.656Z,11.93
2023-03-22T07:29:50.184Z,11.97
2023-03-22T07:32:16.838Z,12.60
2023-03-22T07:34:43.759Z,12.20
2023-03-22T07:37:10.260Z,11.93
2023-03-22T07:39:37.045Z,11.90
2023-03-22T07:42:03.848Z,12.07
2023-03-22T07:44:30.830Z,11.57
2023-03-22T07:46:57.403Z,11.20
2023-03-22T07:49:24.229Z,11.03
2023-03-22T07:51:50.901Z,11.23
2023-03-22T07:54:32.172Z,12.90
2023-03-22T07:56:59.281Z,11.77
2023-03-22T07:59:26.018Z,11.57
2023-03-22T08:01:52.564Z,11.60
2023-03-22T08:04:20.913Z,11.17
2023-03-22T08:06:47.315Z,11.57
2023-03-22T08:09:13.717Z,11.37
2023-03-22T08:11:40.419Z,11.73
2023-03-22T08:14:07.062Z,11.63
2023-03-22T08:16:33.591Z,11.60
2023-03-22T08:19:00.648Z,11.53
2023-03-22T08:21:27.541Z,11.27
2023-03-22T08:23:54.394Z,11.10
2023-03-22T08:26:22.098Z,11.30
2023-03-22T08:28:49.015Z,11.57
2023-03-22T08:31:17.222Z,11.10
2023-03-22T08:33:44.811Z,11.57
2023-03-22T08:36:14.640Z,10.97
2023-03-22T08:38:42.728Z,11.00
2023-03-22T08:41:09.430Z,11.27
2023-03-22T08:43:36.017Z,11.23
2023-03-22T08:46:02.898Z,12.60
2023-03-22T08:48:30.797Z,11.40
2023-03-22T08:50:58.127Z,10.60
2023-03-22T08:53:24.983Z,11.33
2023-03-22T08:55:51.407Z,11.33
2023-03-22T08:58:19.957Z,11.53
2023-03-22T09:00:49.460Z,11.33
2023-03-22T09:03:16.952Z,11.47
2023-03-22T09:05:44.025Z,11.33
2023-03-22T09:08:18.400Z,11.77
2023-03-22T09:10:51.147Z,11.13
2023-03-22T09:13:17.956Z,11.23
2023-03-22T09:15:47.645Z,11.17
2023-03-22T09:18:15.232Z,10.00
2023-03-22T09:20:43.152Z,9.97
2023-03-22T09:23:09.798Z,9.30
2023-03-22T09:25:36.602Z,9.13
2023-03-22T09:28:04.191Z,8.70
2023-03-22T09:30:31.106Z,8.53
2023-03-22T09:32:57.492Z,9.00
2023-03-22T09:35:24.419Z,7.90
2023-03-22T09:37:53.218Z,7.90
2023-03-22T09:40:21.713Z,8.73
2023-03-22T09:42:54.236Z,7.90
2023-03-22T09:45:38.110Z,7.30
2023-03-22T09:48:11.691Z,7.30
2023-03-22T09:50:46.231Z,6.90
2023-03-22T09:53:15.532Z,4.60
2023-03-22T09:55:51.271Z,4.50
2023-03-22T09:58:36.721Z,4.67
2023-03-22T10:01:10.809Z,5.13
2023-03-22T10:03:42.895Z,5.97
2023-03-22T10:06:20.792Z,6.37
2023-03-22T10:09:13.956Z,6.60
2023-03-22T10:11:47.302Z,6.17
2023-03-22T10:14:38.524Z,5.13
2023-03-22T10:17:11.673Z,5.03
2023-03-22T10:19:56.951Z,5.00
2023-03-22T10:22:31.150Z,4.30
2023-03-22T10:25:00.245Z,4.23
2023-03-22T10:27:29.366Z,4.07
2023-03-22T10:30:08.777Z,4.20
2023-03-22T10:32:56.398Z,3.73
2023-03-22T10:35:23.467Z,3.80
2023-03-22T10:37:51.698Z,4.53
2023-03-22T10:40:23.884Z,3.50
2023-03-22T10:43:01.397Z,4.07
2023-03-22T10:45:28.474Z,4.20
2023-03-22T10:48:06.918Z,4.37
2023-03-22T10:50:38.049Z,3.90
2023-03-22T10:53:08.698Z,4.40
2023-03-22T10:55:44.004Z,3.83
2023-03-22T10:58:10.324Z,3.83
2023-03-22T11:00:40.633Z,3.87
2023-03-22T11:03:08.299Z,3.70
2023-03-22T11:05:35.085Z,3.43
2023-03-22T11:08:03.219Z,3.60
2023-03-22T11:10:35.080Z,3.30
2023-03-22T11:13:07.576Z,3.80
2023-03-22T11:15:38.843Z,3.40
2023-03-22T11:18:16.214Z,3.67
2023-03-22T11:20:56.092Z,3.60
2023-03-22T11:23:24.097Z,3.30
2023-03-22T11:25:52.761Z,3.23
2023-03-22T11:28:25.982Z,2.97
2023-03-22T11:31:01.811Z,2.73
2023-03-22T11:33:28.319Z,2.70
2023-03-22T11:35:57.605Z,2.80
2023-03-22T11:38:24.166Z,2.73
2023-03-22T11:40:59.098Z,3.03
2023-03-22T11:43:52.723Z,2.83
2023-03-22T11:46:20.763Z,2.93
2023-03-22T11:48:51.089Z,2.57
2023-03-22T11:51:26.763Z,2.63
2023-03-22T11:54:06.919Z,2.50
2023-03-22T11:56:34.462Z,2.63
2023-03-22T11:59:07.915Z,2.80
2023-03-22T12:01:43.870Z,2.97
2023-03-22T12:04:18.652Z,2.47
2023-03-22T12:06:45.232Z,2.07
2023-03-22T12:09:14.384Z,2.43
2023-03-22T12:11:45.176Z,2.40
2023-03-22T12:14:23.262Z,2.73
2023-03-22T12:17:00.187Z,2.70
2023-03-22T12:19:43.245Z,2.60
2023-03-22T12:22:31.813Z,2.70
2023-03-22T12:24:59.441Z,2.80
2023-03-22T12:27:28.564Z,2.30
2023-03-22T12:30:01.338Z,2.80
2023-03-22T12:32:45.796Z,2.40
2023-03-22T12:35:20.490Z,2.70
2023-03-22T12:37:52.106Z,3.03
2023-03-22T12:40:26.436Z,3.30
2023-03-22T12:43:08.206Z,2.40
2023-03-22T12:45:41.181Z,2.40
2023-03-22T12:48:24.024Z,2.40
2023-03-22T12:50:59.949Z,2.47
2023-03-22T12:53:33.174Z,2.60
2023-03-22T12:56:01.052Z,2.40
2023-03-22T12:58:27.711Z,3.15
2023-03-22T13:00:59.135Z,2.90
2023-03-22T13:03:30.037Z,2.47
2023-03-22T13:06:28.301Z,2.25
2023-03-22T13:09:21.178Z,2.10
2023-03-22T13:12:08.893Z,2.42
2023-03-22T13:14:50.848Z,2.20
2023-03-22T13:17:23.263Z,2.40
2023-03-22T13:20:11.633Z,2.10
2023-03-22T13:22:38.161Z,1.87
2023-03-22T13:25:12.490Z,2.10
2023-03-22T13:27:53.980Z,2.03
2023-03-22T13:30:20.280Z,1.80
2023-03-22T13:33:03.470Z,1.95
2023-03-22T13:35:46.538Z,1.80
2023-03-22T13:38:23.038Z,2.22
2023-03-22T13:40:56.443Z,1.90
2023-03-22T13:43:28.234Z,1.90
2023-03-22T13:46:18.083Z,3.20
2023-03-22T13:48:47.863Z,1.90
2023-03-22T13:51:18.197Z,2.00
2023-03-22T13:54:07.285Z,1.90
2023-03-22T13:56:43.083Z,1.90
2023-03-22T13:59:19.795Z,1.60
2023-03-22T14:01:52.366Z,1.30
2023-03-22T14:04:30.732Z,1.50
2023-03-22T14:07:08.119Z,1.30
2023-03-22T14:09:44.324Z,1.45
2023-03-22T14:12:13.531Z,1.52
2023-03-22T14:14:47.295Z,1.50
2023-03-22T14:17:29.749Z,1.40
2023-03-22T14:19:58.318Z,1.33
